Jay Michael — WDD2051 — position and weather

sailwx.info

Track history (hours):
 
Tides and Currents Weather Stations Pressure Air Temp Water Temp Dewpoint Dewpoint Depression Visibility Wind Speed Wind Dir Waves Ship Positions

Jay Michael

Owner: Sterling Equipment Inc., Quincy, MA. More information available from US FCC via Universal Licensing System and Coast Guard Vessel Documentation Center.

Last reported at 2017-May-04 11:23 UTC. Time now 2017-May-26 16:35 UTC.
Position N 42°15' W 070°58'.
Warning: this ship's position is 22 days out of date.

Length 21 m; draft 2.5 m.

Type: Tug. MMSI: 367110280.

Date/timePositionNaut miles runAvg speedWind from/ knotsBaromVisibWave heightAir tempDewpointWater temp
2017-May-04 11:23N 42°15' W 070°58'0 0.0
2017-May-04 10:59N 42°15' W 070°58'0 0.0
2017-May-03 23:11N 42°15' W 070°58'0 1.8
2017-May-03 22:58N 42°14' W 070°58'1 1.6
2017-May-03 22:30N 42°15' W 070°58'3 5.2
2017-May-03 22:01N 42°17' W 070°56'3 5.6
2017-May-03 21:31N 42°19' W 070°53'3 5.9
2017-May-03 21:01N 42°18' W 070°50'96 3.3
2017-May-02 15:54N 41°11' W 072°20'2 4.9
2017-May-02 15:30N 41°10' W 072°23'67 5.3
2017-May-02 02:52N 40°49' W 073°47'2 6.1
2017-May-02 02:29N 40°48' W 073°50'4 7.4
2017-May-02 02:00N 40°48' W 073°55'4 7.7
2017-May-02 01:30N 40°45' W 073°58'3 5.6
2017-May-02 01:01N 40°42' W 073°60'3 5.5
2017-May-02 00:31N 40°40' W 074°02'2 4.3
2017-May-02 00:01N 40°39' W 074°04'3 6.1
2017-May-01 23:30N 40°39' W 074°08'1 1.5
2017-May-01 23:01N 40°38' W 074°09'0 0.0
2017-May-01 22:30N 40°38' W 074°09'0 0.0
2017-May-01 22:00N 40°38' W 074°09'0 0.0
2017-May-01 21:30N 40°38' W 074°09'0 0.6
2017-May-01 21:00N 40°38' W 074°09'0 0.6
2017-May-01 20:30N 40°38' W 074°09'0 0.0
2017-May-01 20:01N 40°38' W 074°09'0 0.0
2017-May-01 19:30N 40°38' W 074°09'0 0.0
2017-May-01 19:01N 40°38' W 074°09'0 0.0
2017-May-01 18:30N 40°38' W 074°09'0 0.7
2017-May-01 18:00N 40°39' W 074°09'0 0.7
2017-May-01 17:31N 40°38' W 074°09'0 0.0
2017-May-01 17:00N 40°38' W 074°09'0 0.0
2017-May-01 16:30N 40°38' W 074°09'0 0.0
2017-May-01 16:01N 40°38' W 074°09'0 0.0
2017-May-01 15:31N 40°38' W 074°09'0 0.0
2017-May-01 15:00N 40°38' W 074°09'0 0.0
2017-May-01 14:27N 40°38' W 074°09'0 0.0
2017-May-01 13:30N 40°38' W 074°09'0 0.0
2017-May-01 13:00N 40°38' W 074°09'0 0.0
2017-May-01 12:29N 40°38' W 074°09'0 0.0
2017-May-01 12:00N 40°38' W 074°09'0 0.0
2017-May-01 11:29N 40°38' W 074°09'0 0.0
2017-May-01 11:00N 40°38' W 074°09'0 0.0
2017-May-01 10:31N 40°38' W 074°09'0 0.0
2017-May-01 10:00N 40°38' W 074°09'0 0.0
2017-May-01 09:30N 40°38' W 074°09'0 0.0
2017-May-01 09:00N 40°38' W 074°09'0 0.0
2017-May-01 08:30N 40°38' W 074°09'0 0.0
2017-May-01 08:01N 40°38' W 074°09'0 0.0
2017-May-01 07:30N 40°38' W 074°09'0 0.0
2017-May-01 07:00N 40°38' W 074°09'0 0.0
2017-May-01 06:30N 40°38' W 074°09'0 0.0
2017-May-01 06:00N 40°38' W 074°09'0 0.0
2017-May-01 05:30N 40°38' W 074°09'0 0.0
2017-May-01 04:59N 40°38' W 074°09'0 0.0
2017-May-01 04:30N 40°38' W 074°09'0 0.0
2017-May-01 04:00N 40°38' W 074°09'0 0.0
2017-May-01 03:30N 40°38' W 074°09'0 0.0
2017-May-01 03:00N 40°38' W 074°09'0 0.0
2017-May-01 02:30N 40°38' W 074°09'0 0.0
2017-May-01 02:00N 40°38' W 074°09'0 0.0
2017-May-01 01:30N 40°38' W 074°09'0 0.0
2017-May-01 01:00N 40°38' W 074°09'0 0.0
2017-May-01 00:30N 40°38' W 074°09'0 0.0
2017-Apr-30 23:59N 40°38' W 074°09'1 1.6
2017-Apr-30 23:30N 40°39' W 074°09'2 3.6
2017-Apr-30 23:00N 40°39' W 074°06'4 7.6
2017-Apr-30 22:30N 40°41' W 074°02'4 8.9
2017-Apr-30 22:00N 40°44' W 073°58'510.1
2017-Apr-30 21:30N 40°48' W 073°54'60 7.6
2017-Apr-30 13:36N 41°10' W 072°40'1 7.8
2017-Apr-30 13:28N 41°10' W 072°39'3 7.4
2017-Apr-30 13:00N 41°11' W 072°35'3 6.9
2017-Apr-30 12:30N 41°12' W 072°30'3 6.5
2017-Apr-30 12:00N 41°12' W 072°26'100 5.3
2017-Apr-29 16:59N 42°14' W 070°40'4 7.8
2017-Apr-29 16:30N 42°17' W 070°43'4 7.6
2017-Apr-29 16:00N 42°18' W 070°48'4 7.1
2017-Apr-29 15:30N 42°19' W 070°53'2 4.8
2017-Apr-29 15:00N 42°18' W 070°55'3 5.1
2017-Apr-29 14:30N 42°16' W 070°56'2 1.0
2017-Apr-29 12:40N 42°15' W 070°58'0 0.0
2017-Apr-29 12:17N 42°15' W 070°58'0 0.3
2017-Apr-29 11:51N 42°15' W 070°58'0 0.2
2017-Apr-29 11:23N 42°15' W 070°58'0 0.2
2017-Apr-29 10:59N 42°15' W 070°58'0 0.2
2017-Apr-29 10:30N 42°15' W 070°58'0 0.1
2017-Apr-29 10:00N 42°15' W 070°58'0 0.0
2017-Apr-29 09:01N 42°15' W 070°58'0 0.0
2017-Apr-29 09:00N 42°15' W 070°58'0 0.0
2017-Apr-29 08:30N 42°15' W 070°58'0 0.0
2017-Apr-29 07:58N 42°15' W 070°58'0 0.0
2017-Apr-29 07:09N 42°15' W 070°58'0 0.0
2017-Apr-29 07:00N 42°15' W 070°58'0 0.0
2017-Apr-29 03:27N 42°15' W 070°58'0 0.0
2017-Apr-29 03:00N 42°15' W 070°58'0 0.0
2017-Apr-29 02:30N 42°15' W 070°58'0 0.0
2017-Apr-29 01:57N 42°15' W 070°58'0 0.0
2017-Apr-29 01:12N 42°15' W 070°58'0 0.0
2017-Apr-29 01:00N 42°15' W 070°58'0 0.0
2017-Apr-29 00:30N 42°15' W 070°58'0 0.0
2017-Apr-29 00:00N 42°15' W 070°58'0 0.0
2017-Apr-28 23:19N 42°15' W 070°58'0 0.0
2017-Apr-28 23:00N 42°15' W 070°58'0 0.0
2017-Apr-28 22:28N 42°15' W 070°58'0 0.1
2017-Apr-28 21:57N 42°15' W 070°58'0 0.3
2017-Apr-28 21:27N 42°14' W 070°58'0 0.7
2017-Apr-28 20:55N 42°14' W 070°58'0 0.0
2017-Apr-28 09:46N 42°15' W 070°58'0 0.0
2017-Apr-28 04:44N 42°15' W 070°58'1 5.2
2017-Apr-28 04:30N 42°15' W 070°57'3 5.4
2017-Apr-28 04:00N 42°18' W 070°55'2 4.2
2017-Apr-28 03:31N 42°20' W 070°56'2 4.8
2017-Apr-28 03:00N 42°22' W 070°55'3 5.2
2017-Apr-28 02:31N 42°24' W 070°52'4 6.9
2017-Apr-28 02:00N 42°26' W 070°49'3 6.6
2017-Apr-28 01:30N 42°29' W 070°46'3 6.0
2017-Apr-28 01:00N 42°31' W 070°43'3 5.9
2017-Apr-28 00:31N 42°32' W 070°40'3 5.8
2017-Apr-28 00:01N 42°34' W 070°37'3 5.7
2017-Apr-27 23:30N 42°36' W 070°34'3 6.3
2017-Apr-27 23:01N 42°38' W 070°31'3 6.7
2017-Apr-27 22:30N 42°42' W 070°31'3 6.7
2017-Apr-27 22:01N 42°45' W 070°32'3 5.7
2017-Apr-27 21:30N 42°47' W 070°34'3 6.0
2017-Apr-27 21:00N 42°50' W 070°36'7 0.3
2017-Apr-26 22:06N 42°57' W 070°40'2 8.1
2017-Apr-26 21:54N 42°55' W 070°39'3 8.2
2017-Apr-26 21:30N 42°52' W 070°37'4 8.5
2017-Apr-26 21:00N 42°48' W 070°35'4 8.1
2017-Apr-26 20:30N 42°45' W 070°33'4 7.3
2017-Apr-26 20:00N 42°41' W 070°31'3 6.8
2017-Apr-26 19:30N 42°38' W 070°30'4 8.0
2017-Apr-26 19:00N 42°35' W 070°34'4 8.5
2017-Apr-26 18:30N 42°33' W 070°38'4 8.5
2017-Apr-26 18:00N 42°30' W 070°43'4 8.4
2017-Apr-26 17:29N 42°27' W 070°48'4 8.2
2017-Apr-26 16:57N 42°24' W 070°52'4 8.3
2017-Apr-26 16:30N 42°22' W 070°56'4 8.3
2017-Apr-26 16:00N 42°17' W 070°56'3 1.2
2017-Apr-26 13:04N 42°15' W 070°58'0 0.1
2017-Apr-26 12:59N 42°15' W 070°58'  
Track history (hours):
 
Tides and Currents Weather Stations Pressure Air Temp Water Temp Dewpoint Dewpoint Depression Visibility Wind Speed Wind Dir Waves Ship Positions

Jay Michael

Owner: Sterling Equipment Inc., Quincy, MA. More information available from US FCC via Universal Licensing System and Coast Guard Vessel Documentation Center.

Last reported at 2017-May-04 11:23 UTC. Time now 2017-May-26 16:35 UTC.
Position N 42°15' W 070°58'.
Warning: this ship's position is 22 days out of date.

Length 21 m; draft 2.5 m.

Type: Tug. MMSI: 367110280.

Date/timePositionNaut miles runAvg speedWind from/ knotsBaromVisibWave heightAir tempDewpointWater temp
2017-May-04 11:23N 42°15' W 070°58'0 0.0
2017-May-04 10:59N 42°15' W 070°58'0 0.0
2017-May-03 23:11N 42°15' W 070°58'0 1.8
2017-May-03 22:58N 42°14' W 070°58'1 1.6
2017-May-03 22:30N 42°15' W 070°58'3 5.2
2017-May-03 22:01N 42°17' W 070°56'3 5.6
2017-May-03 21:31N 42°19' W 070°53'3 5.9
2017-May-03 21:01N 42°18' W 070°50'96 3.3
2017-May-02 15:54N 41°11' W 072°20'2 4.9
2017-May-02 15:30N 41°10' W 072°23'67 5.3
2017-May-02 02:52N 40°49' W 073°47'2 6.1
2017-May-02 02:29N 40°48' W 073°50'4 7.4
2017-May-02 02:00N 40°48' W 073°55'4 7.7
2017-May-02 01:30N 40°45' W 073°58'3 5.6
2017-May-02 01:01N 40°42' W 073°60'3 5.5
2017-May-02 00:31N 40°40' W 074°02'2 4.3
2017-May-02 00:01N 40°39' W 074°04'3 6.1
2017-May-01 23:30N 40°39' W 074°08'1 1.5
2017-May-01 23:01N 40°38' W 074°09'0 0.0
2017-May-01 22:30N 40°38' W 074°09'0 0.0
2017-May-01 22:00N 40°38' W 074°09'0 0.0
2017-May-01 21:30N 40°38' W 074°09'0 0.6
2017-May-01 21:00N 40°38' W 074°09'0 0.6
2017-May-01 20:30N 40°38' W 074°09'0 0.0
2017-May-01 20:01N 40°38' W 074°09'0 0.0
2017-May-01 19:30N 40°38' W 074°09'0 0.0
2017-May-01 19:01N 40°38' W 074°09'0 0.0
2017-May-01 18:30N 40°38' W 074°09'0 0.7
2017-May-01 18:00N 40°39' W 074°09'0 0.7
2017-May-01 17:31N 40°38' W 074°09'0 0.0
2017-May-01 17:00N 40°38' W 074°09'0 0.0
2017-May-01 16:30N 40°38' W 074°09'0 0.0
2017-May-01 16:01N 40°38' W 074°09'0 0.0
2017-May-01 15:31N 40°38' W 074°09'0 0.0
2017-May-01 15:00N 40°38' W 074°09'0 0.0
2017-May-01 14:27N 40°38' W 074°09'0 0.0
2017-May-01 13:30N 40°38' W 074°09'0 0.0
2017-May-01 13:00N 40°38' W 074°09'0 0.0
2017-May-01 12:29N 40°38' W 074°09'0 0.0
2017-May-01 12:00N 40°38' W 074°09'0 0.0
2017-May-01 11:29N 40°38' W 074°09'0 0.0
2017-May-01 11:00N 40°38' W 074°09'0 0.0
2017-May-01 10:31N 40°38' W 074°09'0 0.0
2017-May-01 10:00N 40°38' W 074°09'0 0.0
2017-May-01 09:30N 40°38' W 074°09'0 0.0
2017-May-01 09:00N 40°38' W 074°09'0 0.0
2017-May-01 08:30N 40°38' W 074°09'0 0.0
2017-May-01 08:01N 40°38' W 074°09'0 0.0
2017-May-01 07:30N 40°38' W 074°09'0 0.0
2017-May-01 07:00N 40°38' W 074°09'0 0.0
2017-May-01 06:30N 40°38' W 074°09'0 0.0
2017-May-01 06:00N 40°38' W 074°09'0 0.0
2017-May-01 05:30N 40°38' W 074°09'0 0.0
2017-May-01 04:59N 40°38' W 074°09'0 0.0
2017-May-01 04:30N 40°38' W 074°09'0 0.0
2017-May-01 04:00N 40°38' W 074°09'0 0.0
2017-May-01 03:30N 40°38' W 074°09'0 0.0
2017-May-01 03:00N 40°38' W 074°09'0 0.0
2017-May-01 02:30N 40°38' W 074°09'0 0.0
2017-May-01 02:00N 40°38' W 074°09'0 0.0
2017-May-01 01:30N 40°38' W 074°09'0 0.0
2017-May-01 01:00N 40°38' W 074°09'0 0.0
2017-May-01 00:30N 40°38' W 074°09'0 0.0
2017-Apr-30 23:59N 40°38' W 074°09'1 1.6
2017-Apr-30 23:30N 40°39' W 074°09'2 3.6
2017-Apr-30 23:00N 40°39' W 074°06'4 7.6
2017-Apr-30 22:30N 40°41' W 074°02'4 8.9
2017-Apr-30 22:00N 40°44' W 073°58'510.1
2017-Apr-30 21:30N 40°48' W 073°54'60 7.6
2017-Apr-30 13:36N 41°10' W 072°40'1 7.8
2017-Apr-30 13:28N 41°10' W 072°39'3 7.4
2017-Apr-30 13:00N 41°11' W 072°35'3 6.9
2017-Apr-30 12:30N 41°12' W 072°30'3 6.5
2017-Apr-30 12:00N 41°12' W 072°26'100 5.3
2017-Apr-29 16:59N 42°14' W 070°40'4 7.8
2017-Apr-29 16:30N 42°17' W 070°43'4 7.6
2017-Apr-29 16:00N 42°18' W 070°48'4 7.1
2017-Apr-29 15:30N 42°19' W 070°53'2 4.8
2017-Apr-29 15:00N 42°18' W 070°55'3 5.1
2017-Apr-29 14:30N 42°16' W 070°56'2 1.0
2017-Apr-29 12:40N 42°15' W 070°58'0 0.0
2017-Apr-29 12:17N 42°15' W 070°58'0 0.3
2017-Apr-29 11:51N 42°15' W 070°58'0 0.2
2017-Apr-29 11:23N 42°15' W 070°58'0 0.2
2017-Apr-29 10:59N 42°15' W 070°58'0 0.2
2017-Apr-29 10:30N 42°15' W 070°58'0 0.1
2017-Apr-29 10:00N 42°15' W 070°58'0 0.0
2017-Apr-29 09:01N 42°15' W 070°58'0 0.0
2017-Apr-29 09:00N 42°15' W 070°58'0 0.0
2017-Apr-29 08:30N 42°15' W 070°58'0 0.0
2017-Apr-29 07:58N 42°15' W 070°58'0 0.0
2017-Apr-29 07:09N 42°15' W 070°58'0 0.0
2017-Apr-29 07:00N 42°15' W 070°58'0 0.0
2017-Apr-29 03:27N 42°15' W 070°58'0 0.0
2017-Apr-29 03:00N 42°15' W 070°58'0 0.0
2017-Apr-29 02:30N 42°15' W 070°58'0 0.0
2017-Apr-29 01:57N 42°15' W 070°58'0 0.0
2017-Apr-29 01:12N 42°15' W 070°58'0 0.0
2017-Apr-29 01:00N 42°15' W 070°58'0 0.0
2017-Apr-29 00:30N 42°15' W 070°58'0 0.0
2017-Apr-29 00:00N 42°15' W 070°58'0 0.0
2017-Apr-28 23:19N 42°15' W 070°58'0 0.0
2017-Apr-28 23:00N 42°15' W 070°58'0 0.0
2017-Apr-28 22:28N 42°15' W 070°58'0 0.1
2017-Apr-28 21:57N 42°15' W 070°58'0 0.3
2017-Apr-28 21:27N 42°14' W 070°58'0 0.7
2017-Apr-28 20:55N 42°14' W 070°58'0 0.0
2017-Apr-28 09:46N 42°15' W 070°58'0 0.0
2017-Apr-28 04:44N 42°15' W 070°58'1 5.2
2017-Apr-28 04:30N 42°15' W 070°57'3 5.4
2017-Apr-28 04:00N 42°18' W 070°55'2 4.2
2017-Apr-28 03:31N 42°20' W 070°56'2 4.8
2017-Apr-28 03:00N 42°22' W 070°55'3 5.2
2017-Apr-28 02:31N 42°24' W 070°52'4 6.9
2017-Apr-28 02:00N 42°26' W 070°49'3 6.6
2017-Apr-28 01:30N 42°29' W 070°46'3 6.0
2017-Apr-28 01:00N 42°31' W 070°43'3 5.9
2017-Apr-28 00:31N 42°32' W 070°40'3 5.8
2017-Apr-28 00:01N 42°34' W 070°37'3 5.7
2017-Apr-27 23:30N 42°36' W 070°34'3 6.3
2017-Apr-27 23:01N 42°38' W 070°31'3 6.7
2017-Apr-27 22:30N 42°42' W 070°31'3 6.7
2017-Apr-27 22:01N 42°45' W 070°32'3 5.7
2017-Apr-27 21:30N 42°47' W 070°34'3 6.0
2017-Apr-27 21:00N 42°50' W 070°36'7 0.3
2017-Apr-26 22:06N 42°57' W 070°40'2 8.1
2017-Apr-26 21:54N 42°55' W 070°39'3 8.2
2017-Apr-26 21:30N 42°52' W 070°37'4 8.5
2017-Apr-26 21:00N 42°48' W 070°35'4 8.1
2017-Apr-26 20:30N 42°45' W 070°33'4 7.3
2017-Apr-26 20:00N 42°41' W 070°31'3 6.8
2017-Apr-26 19:30N 42°38' W 070°30'4 8.0
2017-Apr-26 19:00N 42°35' W 070°34'4 8.5
2017-Apr-26 18:30N 42°33' W 070°38'4 8.5
2017-Apr-26 18:00N 42°30' W 070°43'4 8.4
2017-Apr-26 17:29N 42°27' W 070°48'4 8.2
2017-Apr-26 16:57N 42°24' W 070°52'4 8.3
2017-Apr-26 16:30N 42°22' W 070°56'4 8.3
2017-Apr-26 16:00N 42°17' W 070°56'3 1.2
2017-Apr-26 13:04N 42°15' W 070°58'0 0.1
2017-Apr-26 12:59N 42°15' W 070°58'  

Dump ship's entire track history